createdAt,value
2023-01-13T00:00:14.335Z,1
2023-01-13T00:01:14.295Z,1
2023-01-13T00:02:14.318Z,1
2023-01-13T00:03:14.315Z,0
2023-01-13T00:04:14.293Z,0
2023-01-13T00:05:14.355Z,1
2023-01-13T00:06:14.286Z,1
2023-01-13T00:07:30.499Z,1
2023-01-13T00:08:14.312Z,0
2023-01-13T00:09:14.298Z,1
2023-01-13T00:10:14.313Z,0
2023-01-13T00:11:14.307Z,0
2023-01-13T00:12:14.335Z,0
2023-01-13T00:13:14.324Z,0
2023-01-13T00:14:14.297Z,0
2023-01-13T00:15:14.294Z,0
2023-01-13T00:16:14.309Z,0
2023-01-13T00:17:14.349Z,0
2023-01-13T00:18:14.318Z,0
2023-01-13T00:19:14.296Z,1
2023-01-13T00:20:14.302Z,0
2023-01-13T00:21:14.294Z,1
2023-01-13T00:22:14.304Z,1
2023-01-13T00:23:14.339Z,1
2023-01-13T00:24:14.292Z,0
2023-01-13T00:25:14.315Z,0
2023-01-13T00:26:14.307Z,0
2023-01-13T00:27:14.299Z,0
2023-01-13T00:28:14.458Z,0
2023-01-13T00:29:14.299Z,0
2023-01-13T00:30:14.292Z,0
2023-01-13T00:31:14.385Z,0
2023-01-13T00:32:14.288Z,0
2023-01-13T00:33:14.307Z,1
2023-01-13T00:34:14.346Z,0
2023-01-13T00:35:14.321Z,1
2023-01-13T00:36:14.286Z,0
2023-01-13T00:37:14.292Z,0
2023-01-13T00:38:14.316Z,0
2023-01-13T00:39:14.341Z,0
2023-01-13T00:40:14.311Z,1
2023-01-13T00:41:14.297Z,0
2023-01-13T00:42:14.305Z,1
2023-01-13T00:43:14.308Z,0
2023-01-13T00:44:14.300Z,1
2023-01-13T00:45:14.300Z,0
2023-01-13T00:46:14.348Z,1
2023-01-13T00:47:14.287Z,0
2023-01-13T00:48:14.301Z,1
2023-01-13T00:49:14.292Z,1
2023-01-13T00:50:14.303Z,0
2023-01-13T00:51:14.292Z,1
2023-01-13T00:52:14.295Z,1
2023-01-13T00:53:14.312Z,1
2023-01-13T00:54:14.330Z,1
2023-01-13T00:55:14.299Z,1
2023-01-13T00:56:14.369Z,1
2023-01-13T00:57:14.302Z,0
2023-01-13T00:58:14.336Z,1
2023-01-13T00:59:14.287Z,2
2023-01-13T01:00:14.308Z,0
2023-01-13T01:01:14.510Z,0
2023-01-13T01:02:14.368Z,1
2023-01-13T01:03:14.319Z,1
2023-01-13T01:04:14.302Z,0
2023-01-13T01:05:14.287Z,0
2023-01-13T01:06:14.306Z,1
2023-01-13T01:07:36.508Z,1
2023-01-13T01:08:14.316Z,1
2023-01-13T01:09:14.308Z,1
2023-01-13T01:10:14.279Z,1
2023-01-13T01:11:14.294Z,0
2023-01-13T01:12:14.295Z,1
2023-01-13T01:13:14.344Z,1
2023-01-13T01:14:14.302Z,0
2023-01-13T01:15:14.297Z,1
2023-01-13T01:16:14.353Z,1
2023-01-13T01:17:14.298Z,2
2023-01-13T01:18:14.309Z,1
2023-01-13T01:19:14.465Z,1
2023-01-13T01:20:14.335Z,2
2023-01-13T01:21:14.367Z,2
2023-01-13T01:22:14.306Z,1
2023-01-13T01:23:14.314Z,1
2023-01-13T01:24:14.300Z,1
2023-01-13T01:25:14.391Z,2
2023-01-13T01:26:14.309Z,1
2023-01-13T01:27:14.304Z,1
2023-01-13T01:28:14.329Z,1
2023-01-13T01:29:14.318Z,2
2023-01-13T01:30:14.291Z,1
2023-01-13T01:31:14.345Z,1
2023-01-13T01:32:14.308Z,2
2023-01-13T01:33:14.316Z,2
2023-01-13T01:34:14.293Z,0
2023-01-13T01:35:14.288Z,1
2023-01-13T01:36:14.293Z,3
2023-01-13T01:37:14.299Z,2
2023-01-13T01:38:14.315Z,2
2023-01-13T01:39:14.302Z,3
2023-01-13T01:40:14.295Z,0
2023-01-13T01:41:14.299Z,2
2023-01-13T01:42:14.289Z,0
2023-01-13T01:43:14.322Z,3
2023-01-13T01:44:14.299Z,2
2023-01-13T01:45:14.285Z,2
2023-01-13T01:46:14.335Z,1
2023-01-13T01:47:14.322Z,1
2023-01-13T01:48:14.309Z,0
2023-01-13T01:49:14.300Z,1
2023-01-13T01:50:14.298Z,0
2023-01-13T01:51:14.301Z,1
2023-01-13T02:08:14.317Z,3
2023-01-13T02:09:14.315Z,3
2023-01-13T02:10:14.320Z,2
2023-01-13T02:11:14.298Z,2
2023-01-13T02:12:14.356Z,3
2023-01-13T02:13:14.296Z,1
2023-01-13T02:14:14.324Z,1
2023-01-13T02:15:14.333Z,3
2023-01-13T02:16:14.378Z,2
2023-01-13T02:17:14.302Z,1
2023-01-13T02:19:14.307Z,2
2023-01-13T02:20:14.293Z,1
2023-01-13T02:21:14.289Z,1
2023-01-13T02:22:14.337Z,2
2023-01-13T02:23:14.299Z,1
2023-01-13T02:25:14.303Z,2
2023-01-13T02:26:14.291Z,3
2023-01-13T02:27:14.297Z,2
2023-01-13T02:28:14.286Z,1
2023-01-13T02:29:14.315Z,1
2023-01-13T02:30:14.299Z,1
2023-01-13T02:31:14.321Z,1
2023-01-13T02:32:14.339Z,2
2023-01-13T02:33:14.320Z,2
2023-01-13T02:34:14.297Z,2
2023-01-13T02:35:14.295Z,2
2023-01-13T02:36:14.340Z,2
2023-01-13T02:37:14.294Z,1
2023-01-13T02:38:14.314Z,2
2023-01-13T02:39:14.312Z,3
2023-01-13T02:40:14.315Z,3
2023-01-13T02:41:14.354Z,2
2023-01-13T02:42:14.306Z,1
2023-01-13T02:43:14.296Z,2
2023-01-13T02:44:14.321Z,1
2023-01-13T02:45:14.319Z,1
2023-01-13T02:46:14.291Z,1
2023-01-13T02:47:14.317Z,1
2023-01-13T02:48:14.303Z,1
2023-01-13T02:49:14.314Z,1
2023-01-13T02:50:14.330Z,0
2023-01-13T02:51:14.305Z,1
2023-01-13T02:52:14.313Z,1
2023-01-13T02:53:14.330Z,2
2023-01-13T02:54:14.294Z,1
2023-01-13T02:55:14.325Z,2
2023-01-13T02:56:14.302Z,2
2023-01-13T02:57:14.332Z,1
2023-01-13T02:58:14.292Z,1
2023-01-13T02:59:14.321Z,2
2023-01-13T03:00:14.283Z,1
2023-01-13T03:01:14.406Z,1
2023-01-13T03:02:14.502Z,1
2023-01-13T03:03:14.277Z,2
2023-01-13T03:04:14.266Z,1
2023-01-13T03:05:14.307Z,1
2023-01-13T03:06:14.252Z,1
2023-01-13T03:07:14.245Z,2
2023-01-13T03:08:14.394Z,2
2023-01-13T03:09:14.260Z,0
2023-01-13T03:10:14.305Z,1
2023-01-13T03:11:14.274Z,1
2023-01-13T03:12:14.264Z,1
2023-01-13T03:13:14.255Z,0
2023-01-13T03:14:14.264Z,1
2023-01-13T03:15:14.283Z,1
2023-01-13T03:16:14.301Z,1
2023-01-13T03:17:14.274Z,0
2023-01-13T03:18:14.299Z,0
2023-01-13T03:19:14.248Z,0
2023-01-13T03:20:14.261Z,2
2023-01-13T03:21:14.291Z,0
2023-01-13T03:22:14.255Z,1
2023-01-13T03:23:14.264Z,1
2023-01-13T03:24:14.273Z,0
2023-01-13T03:25:14.271Z,1
2023-01-13T03:26:14.274Z,1
2023-01-13T03:27:14.310Z,1
2023-01-13T03:28:14.282Z,0
2023-01-13T03:29:14.288Z,0
2023-01-13T03:30:14.276Z,1
2023-01-13T03:31:14.273Z,1
2023-01-13T03:32:14.283Z,2
2023-01-13T03:33:14.259Z,1
2023-01-13T03:34:14.278Z,1
2023-01-13T03:35:14.286Z,1
2023-01-13T03:36:14.296Z,1
2023-01-13T03:37:14.276Z,0
2023-01-13T03:38:14.253Z,0
2023-01-13T03:39:14.261Z,1
2023-01-13T03:40:14.253Z,0
2023-01-13T03:41:14.285Z,1
2023-01-13T03:42:14.277Z,1
2023-01-13T03:43:14.267Z,1
2023-01-13T03:44:14.263Z,1
2023-01-13T03:45:14.282Z,1
2023-01-13T03:46:14.297Z,1
2023-01-13T03:47:14.263Z,1
2023-01-13T03:48:14.284Z,0
2023-01-13T03:49:14.253Z,2
2023-01-13T03:50:14.259Z,1
2023-01-13T03:51:14.257Z,1
2023-01-13T03:52:14.270Z,1
2023-01-13T03:53:14.273Z,2
2023-01-13T03:54:14.249Z,2
2023-01-13T03:55:14.288Z,1
2023-01-13T03:56:14.270Z,0
2023-01-13T03:57:14.270Z,1
2023-01-13T03:58:14.426Z,2
2023-01-13T03:59:14.274Z,1
2023-01-13T04:00:14.283Z,1
2023-01-13T04:01:14.360Z,1
2023-01-13T04:02:14.407Z,1
2023-01-13T04:03:14.256Z,2
2023-01-13T04:04:14.268Z,1
2023-01-13T04:05:14.269Z,3
2023-01-13T04:06:14.256Z,1
2023-01-13T04:07:14.266Z,1
2023-01-13T04:08:14.308Z,3
2023-01-13T04:09:14.257Z,3
2023-01-13T04:10:14.257Z,2
2023-01-13T04:11:14.271Z,1
2023-01-13T04:12:14.316Z,2
2023-01-13T04:13:14.281Z,2
2023-01-13T04:14:14.259Z,2
2023-01-13T04:15:14.278Z,2
2023-01-13T04:16:14.288Z,2
2023-01-13T04:17:14.271Z,3
2023-01-13T04:18:14.333Z,2
2023-01-13T04:19:14.256Z,3
2023-01-13T04:20:14.254Z,1
2023-01-13T04:21:14.275Z,3
2023-01-13T04:22:14.273Z,2
2023-01-13T04:23:14.262Z,1
2023-01-13T04:24:14.279Z,1
2023-01-13T04:25:14.277Z,2
2023-01-13T04:26:14.252Z,3
2023-01-13T04:27:14.280Z,3
2023-01-13T04:28:24.281Z,2
2023-01-13T04:29:15.732Z,2
2023-01-13T04:30:14.271Z,3
2023-01-13T04:31:14.373Z,3
2023-01-13T04:32:14.273Z,1
2023-01-13T04:33:14.285Z,4
2023-01-13T04:34:14.271Z,2
2023-01-13T04:35:14.278Z,2
2023-01-13T04:36:14.249Z,2
2023-01-13T04:37:14.266Z,4
2023-01-13T04:38:14.275Z,4
2023-01-13T04:39:14.264Z,4
2023-01-13T04:40:14.250Z,4
2023-01-13T04:41:14.254Z,5
2023-01-13T04:42:14.255Z,3
2023-01-13T04:43:14.298Z,4
2023-01-13T04:44:14.278Z,2
2023-01-13T04:45:14.309Z,4
2023-01-13T04:46:14.277Z,3
2023-01-13T04:47:14.273Z,3
2023-01-13T04:48:14.264Z,3
2023-01-13T04:49:14.250Z,4
2023-01-13T04:50:14.253Z,2
2023-01-13T04:51:14.269Z,3
2023-01-13T04:52:14.283Z,4
2023-01-13T04:54:14.259Z,3
2023-01-13T04:55:14.277Z,2
2023-01-13T04:56:14.327Z,4
2023-01-13T04:57:14.261Z,3
2023-01-13T04:58:14.259Z,4
2023-01-13T04:59:14.245Z,4
2023-01-13T05:00:14.283Z,4
2023-01-13T05:01:14.330Z,4
2023-01-13T05:02:14.299Z,6
2023-01-13T05:03:14.293Z,4
2023-01-13T05:04:14.258Z,4
2023-01-13T05:05:14.278Z,6
2023-01-13T05:06:14.255Z,5
2023-01-13T05:07:14.250Z,5
2023-01-13T05:08:14.269Z,4
2023-01-13T05:09:14.259Z,4
2023-01-13T05:10:14.265Z,5
2023-01-13T05:11:14.248Z,6
2023-01-13T05:12:14.272Z,5
2023-01-13T05:13:14.279Z,5
2023-01-13T05:14:14.291Z,5
2023-01-13T05:15:14.277Z,5
2023-01-13T05:16:14.364Z,8
2023-01-13T05:17:14.273Z,6
2023-01-13T05:18:14.281Z,5
2023-01-13T05:19:14.261Z,6
2023-01-13T05:20:14.264Z,5
2023-01-13T05:21:14.272Z,8
2023-01-13T05:22:14.308Z,3
2023-01-13T05:23:14.253Z,4
2023-01-13T05:24:14.287Z,5
2023-01-13T05:25:14.262Z,6
2023-01-13T05:26:14.264Z,7
2023-01-13T05:27:14.263Z,4
2023-01-13T05:28:30.464Z,6
2023-01-13T05:29:14.296Z,9
2023-01-13T05:30:14.307Z,7
2023-01-13T05:31:14.312Z,6
2023-01-13T05:32:14.254Z,11
2023-01-13T05:33:14.262Z,10
2023-01-13T05:34:14.278Z,8
2023-01-13T05:35:14.262Z,7
2023-01-13T05:36:14.249Z,10
2023-01-13T05:37:14.254Z,6
2023-01-13T05:38:14.250Z,9
2023-01-13T05:39:14.449Z,11
2023-01-13T05:40:14.266Z,7
2023-01-13T05:41:14.286Z,9
2023-01-13T05:42:14.270Z,9
2023-01-13T05:43:14.262Z,5
2023-01-13T05:44:14.272Z,7
2023-01-13T05:45:14.289Z,10
2023-01-13T05:46:14.316Z,6
2023-01-13T05:47:14.263Z,7
2023-01-13T05:48:14.255Z,7
2023-01-13T05:49:14.285Z,9
2023-01-13T05:50:14.257Z,9
2023-01-13T05:51:14.273Z,6
2023-01-13T05:52:14.251Z,4
2023-01-13T05:53:14.253Z,5
2023-01-13T05:54:14.301Z,4
2023-01-13T05:55:14.263Z,4
2023-01-13T05:56:14.267Z,7
2023-01-13T05:57:14.316Z,2
2023-01-13T05:58:14.259Z,8
2023-01-13T05:59:14.300Z,6
2023-01-13T06:00:14.263Z,6
2023-01-13T06:01:14.328Z,6
2023-01-13T06:02:14.257Z,6
2023-01-13T06:03:14.320Z,7
2023-01-13T06:04:14.339Z,6
2023-01-13T06:05:14.250Z,8
2023-01-13T06:06:14.273Z,7
2023-01-13T06:07:14.276Z,5
2023-01-13T06:08:14.252Z,8
2023-01-13T06:09:14.271Z,3
2023-01-13T06:10:14.277Z,7
2023-01-13T06:11:14.263Z,6
2023-01-13T06:12:14.268Z,6
2023-01-13T06:13:14.261Z,6
2023-01-13T06:15:14.262Z,5
2023-01-13T06:16:14.354Z,5
2023-01-13T06:17:14.269Z,6
2023-01-13T06:18:14.261Z,5
2023-01-13T06:19:14.257Z,4
2023-01-13T06:20:14.243Z,5
2023-01-13T06:21:14.269Z,7
2023-01-13T06:22:14.275Z,6
2023-01-13T06:23:14.253Z,7
2023-01-13T06:24:14.301Z,6
2023-01-13T06:25:14.261Z,5
2023-01-13T06:26:14.257Z,6
2023-01-13T06:27:14.251Z,6
2023-01-13T06:28:19.954Z,7
2023-01-13T06:29:14.260Z,8
2023-01-13T06:30:14.253Z,6
2023-01-13T06:31:14.331Z,6
2023-01-13T06:32:14.256Z,5
2023-01-13T06:33:14.260Z,5
2023-01-13T06:34:14.269Z,6
2023-01-13T06:35:14.264Z,8
2023-01-13T06:36:14.243Z,7
2023-01-13T06:37:14.257Z,6
2023-01-13T06:39:14.298Z,6
2023-01-13T06:40:14.278Z,5
2023-01-13T06:41:14.264Z,8
2023-01-13T06:42:14.268Z,4
2023-01-13T06:43:16.127Z,5
2023-01-13T06:44:14.256Z,4
2023-01-13T06:45:14.265Z,5
2023-01-13T06:46:14.369Z,5
2023-01-13T06:47:14.298Z,8
2023-01-13T06:48:14.259Z,5
2023-01-13T06:49:14.275Z,3
2023-01-13T06:50:14.257Z,5
2023-01-13T06:51:14.259Z,6
2023-01-13T06:52:14.255Z,4
2023-01-13T06:53:14.294Z,4
2023-01-13T06:54:14.269Z,6
2023-01-13T06:55:14.258Z,5
2023-01-13T06:56:14.243Z,5
2023-01-13T06:57:14.274Z,5
2023-01-13T06:58:14.257Z,5
2023-01-13T06:59:14.313Z,4
2023-01-13T07:00:14.265Z,3
2023-01-13T07:01:14.412Z,6
2023-01-13T07:02:14.447Z,5
2023-01-13T07:03:14.262Z,6
2023-01-13T07:04:14.265Z,4
2023-01-13T07:05:14.244Z,3
2023-01-13T07:06:14.251Z,3
2023-01-13T07:07:14.256Z,5
2023-01-13T07:08:14.286Z,5
2023-01-13T07:09:14.262Z,4
2023-01-13T07:10:14.261Z,4
2023-01-13T07:11:14.255Z,5
2023-01-13T07:12:14.257Z,6
2023-01-13T07:13:14.281Z,4
2023-01-13T07:14:14.252Z,3
2023-01-13T07:15:14.257Z,7
2023-01-13T07:16:14.310Z,5
2023-01-13T07:17:14.267Z,3
2023-01-13T07:18:14.475Z,4
2023-01-13T07:19:14.248Z,7
2023-01-13T07:20:14.256Z,7
2023-01-13T07:21:14.277Z,5
2023-01-13T07:22:14.268Z,4
2023-01-13T07:23:14.273Z,4
2023-01-13T07:24:14.279Z,6
2023-01-13T07:25:14.320Z,5
2023-01-13T07:26:14.263Z,7
2023-01-13T07:27:14.271Z,9
2023-01-13T07:28:14.248Z,6
2023-01-13T07:29:14.271Z,4
2023-01-13T07:30:14.313Z,4
2023-01-13T07:31:14.356Z,3
2023-01-13T07:32:14.255Z,5
2023-01-13T07:33:14.266Z,6
2023-01-13T07:34:14.261Z,6
2023-01-13T07:35:14.267Z,3
2023-01-13T07:36:14.270Z,3
2023-01-13T07:37:14.255Z,3
2023-01-13T07:38:14.275Z,3
2023-01-13T07:39:14.261Z,3
2023-01-13T07:40:14.260Z,3
2023-01-13T07:41:14.252Z,4
2023-01-13T07:42:14.261Z,2
2023-01-13T07:43:14.284Z,5
2023-01-13T07:44:14.257Z,3
2023-01-13T07:45:14.276Z,2
2023-01-13T07:46:14.304Z,2
2023-01-13T07:47:14.283Z,3
2023-01-13T07:48:14.263Z,3
2023-01-13T07:49:14.281Z,2
2023-01-13T07:50:14.270Z,4
2023-01-13T07:51:14.257Z,2
2023-01-13T07:52:14.314Z,2
2023-01-13T07:53:14.251Z,4
2023-01-13T07:54:14.258Z,3
2023-01-13T07:55:14.295Z,4
2023-01-13T07:56:14.288Z,4
2023-01-13T07:57:14.266Z,4
2023-01-13T07:58:14.250Z,4
2023-01-13T07:59:14.310Z,3
2023-01-13T08:00:14.283Z,3
2023-01-13T08:01:14.420Z,2
2023-01-13T08:02:14.505Z,3
2023-01-13T08:03:14.283Z,3
2023-01-13T08:04:14.257Z,3
2023-01-13T08:05:14.276Z,2
2023-01-13T08:06:14.248Z,3
2023-01-13T08:07:14.243Z,2
2023-01-13T08:08:14.295Z,3
2023-01-13T08:09:14.267Z,4
2023-01-13T08:10:14.264Z,3
2023-01-13T08:11:14.259Z,4
2023-01-13T08:12:14.275Z,4
2023-01-13T08:13:14.257Z,3
2023-01-13T08:14:14.248Z,2
2023-01-13T08:15:14.271Z,5
2023-01-13T08:16:14.394Z,2
2023-01-13T08:17:14.271Z,4
2023-01-13T08:18:14.265Z,4
2023-01-13T08:19:14.267Z,3
2023-01-13T08:20:14.321Z,4
2023-01-13T08:21:14.254Z,3
2023-01-13T08:22:14.266Z,3
2023-01-13T08:23:14.265Z,2
2023-01-13T08:24:14.262Z,3
2023-01-13T08:25:14.318Z,6
2023-01-13T08:26:14.321Z,4
2023-01-13T08:27:14.259Z,3
2023-01-13T08:28:14.287Z,4
2023-01-13T08:29:15.163Z,1
2023-01-13T08:30:14.269Z,4
2023-01-13T08:31:14.325Z,4
2023-01-13T08:32:14.263Z,3
2023-01-13T08:33:14.278Z,4
2023-01-13T08:34:14.282Z,5
2023-01-13T08:35:14.426Z,3
2023-01-13T08:36:14.257Z,3
2023-01-13T08:37:14.273Z,4
2023-01-13T08:38:14.266Z,4
2023-01-13T08:39:14.269Z,5
2023-01-13T08:40:14.276Z,3
2023-01-13T08:41:14.269Z,4
2023-01-13T08:42:14.269Z,3
2023-01-13T08:43:14.260Z,3
2023-01-13T08:44:14.256Z,3
2023-01-13T08:45:14.294Z,5
2023-01-13T08:46:14.302Z,4
2023-01-13T08:47:14.263Z,2
2023-01-13T08:48:14.264Z,2
2023-01-13T08:49:14.267Z,5
2023-01-13T08:50:14.267Z,3
2023-01-13T08:51:14.294Z,4
2023-01-13T08:52:14.261Z,2
2023-01-13T08:53:14.308Z,3
2023-01-13T08:54:16.002Z,5
2023-01-13T08:55:14.282Z,4
2023-01-13T08:56:14.253Z,4
2023-01-13T08:57:14.314Z,3
2023-01-13T08:58:16.197Z,3
2023-01-13T08:59:24.286Z,5
2023-01-13T09:00:14.292Z,5
2023-01-13T09:01:14.509Z,6
2023-01-13T09:02:14.500Z,5
2023-01-13T09:03:14.251Z,7
2023-01-13T09:04:14.312Z,4
2023-01-13T09:05:16.913Z,4
2023-01-13T09:06:14.271Z,7
2023-01-13T09:07:14.254Z,5
2023-01-13T09:08:14.261Z,6
2023-01-13T09:09:14.268Z,6
2023-01-13T09:10:14.272Z,7
2023-01-13T09:11:14.259Z,5
2023-01-13T09:12:14.247Z,5
2023-01-13T09:13:14.272Z,7
2023-01-13T09:14:14.250Z,6
2023-01-13T09:15:14.269Z,5
2023-01-13T09:16:14.367Z,6
2023-01-13T09:17:14.280Z,6
2023-01-13T09:18:14.255Z,8
2023-01-13T09:19:14.274Z,6
2023-01-13T09:20:14.283Z,7
2023-01-13T09:21:14.253Z,8
2023-01-13T09:22:14.284Z,10
2023-01-13T09:23:14.266Z,6
2023-01-13T09:24:14.251Z,8
2023-01-13T09:25:14.280Z,9
2023-01-13T09:26:14.267Z,6
2023-01-13T09:27:14.263Z,8
2023-01-13T09:28:14.257Z,7
2023-01-13T09:29:14.263Z,5
2023-01-13T09:30:14.261Z,7
2023-01-13T09:31:14.384Z,6
2023-01-13T09:32:14.264Z,8
2023-01-13T09:33:14.286Z,9
2023-01-13T09:34:14.250Z,9
2023-01-13T09:35:14.299Z,9
2023-01-13T09:36:14.263Z,6
2023-01-13T09:37:14.257Z,9
2023-01-13T09:38:14.270Z,8
2023-01-13T09:39:14.253Z,8
2023-01-13T09:40:14.286Z,9
2023-01-13T09:41:14.273Z,8
2023-01-13T09:42:14.265Z,7
2023-01-13T09:43:14.256Z,6
2023-01-13T09:44:14.268Z,11
2023-01-13T09:45:14.335Z,6
2023-01-13T09:46:14.326Z,8
2023-01-13T09:47:14.280Z,7
2023-01-13T09:48:14.271Z,7
2023-01-13T09:49:14.268Z,7
2023-01-13T09:50:14.300Z,9
2023-01-13T09:51:14.339Z,9
2023-01-13T09:52:14.263Z,7
2023-01-13T09:53:14.289Z,8
2023-01-13T09:54:14.325Z,9
2023-01-13T09:55:14.290Z,7
2023-01-13T09:56:14.263Z,8
2023-01-13T09:57:14.269Z,10
2023-01-13T09:58:14.293Z,6
2023-01-13T09:59:30.479Z,8
2023-01-13T10:00:14.288Z,7
2023-01-13T10:01:14.364Z,6
2023-01-13T10:02:14.315Z,12
2023-01-13T10:03:14.288Z,11
2023-01-13T10:04:14.276Z,7
2023-01-13T10:05:14.315Z,6
2023-01-13T10:06:14.256Z,4
2023-01-13T10:07:14.410Z,10
2023-01-13T10:08:14.260Z,7
2023-01-13T10:09:14.269Z,9
2023-01-13T10:10:14.311Z,6
2023-01-13T10:11:14.260Z,11
2023-01-13T10:12:14.258Z,8
2023-01-13T10:13:14.268Z,7
2023-01-13T10:14:14.286Z,9
2023-01-13T10:15:14.289Z,12
2023-01-13T10:16:14.339Z,6
2023-01-13T10:17:14.267Z,6
2023-01-13T10:18:14.266Z,7
2023-01-13T10:19:14.256Z,9
2023-01-13T10:20:14.294Z,6
2023-01-13T10:21:14.252Z,7
2023-01-13T10:22:14.256Z,13
2023-01-13T10:23:14.278Z,17
2023-01-13T10:24:14.292Z,12
2023-01-13T10:25:14.274Z,10
2023-01-13T10:26:14.325Z,8
2023-01-13T10:27:14.254Z,10
2023-01-13T10:28:14.280Z,7
2023-01-13T10:29:14.281Z,9
2023-01-13T10:30:14.294Z,8
2023-01-13T10:31:14.339Z,10
2023-01-13T10:32:14.249Z,7
2023-01-13T10:33:14.282Z,9
2023-01-13T10:34:14.295Z,8
2023-01-13T10:35:14.277Z,9
2023-01-13T10:36:14.282Z,9
2023-01-13T10:37:14.271Z,8
2023-01-13T10:38:14.276Z,9
2023-01-13T10:39:14.268Z,8
2023-01-13T10:40:14.280Z,9
2023-01-13T10:41:14.270Z,7
2023-01-13T10:42:14.269Z,7
2023-01-13T10:43:14.273Z,10
2023-01-13T10:44:14.274Z,8
2023-01-13T10:45:14.305Z,9
2023-01-13T10:46:14.303Z,10
2023-01-13T10:47:14.273Z,7
2023-01-13T10:48:14.276Z,7
2023-01-13T10:49:14.267Z,9
2023-01-13T10:50:14.322Z,7
2023-01-13T10:51:14.283Z,11
2023-01-13T10:52:14.313Z,9
2023-01-13T10:53:14.279Z,8
2023-01-13T10:54:14.294Z,8
2023-01-13T10:55:14.455Z,7
2023-01-13T10:56:14.277Z,10
2023-01-13T10:57:14.273Z,8
2023-01-13T10:58:14.268Z,12
2023-01-13T10:59:36.477Z,12
2023-01-13T11:00:14.294Z,9
2023-01-13T11:01:14.326Z,8
2023-01-13T11:02:25.229Z,8
2023-01-13T11:03:14.278Z,8
2023-01-13T11:04:14.290Z,9
2023-01-13T11:05:14.345Z,9
2023-01-13T11:06:14.267Z,8
2023-01-13T11:07:14.273Z,8
2023-01-13T11:08:14.281Z,5
2023-01-13T11:09:14.327Z,8
2023-01-13T11:10:14.270Z,10
2023-01-13T11:11:14.269Z,9
2023-01-13T11:12:14.259Z,8
2023-01-13T11:13:14.287Z,7
2023-01-13T11:14:14.265Z,8
2023-01-13T11:15:14.277Z,9
2023-01-13T11:16:14.385Z,6
2023-01-13T11:17:14.296Z,9
2023-01-13T11:18:14.259Z,7
2023-01-13T11:19:14.276Z,9
2023-01-13T11:20:14.279Z,8
2023-01-13T11:21:14.282Z,9
2023-01-13T11:22:14.257Z,9
2023-01-13T11:23:14.267Z,13
2023-01-13T11:24:14.268Z,9
2023-01-13T11:25:14.265Z,9
2023-01-13T11:26:14.312Z,11
2023-01-13T11:27:14.257Z,11
2023-01-13T11:28:14.280Z,10
2023-01-13T11:29:14.261Z,7
2023-01-13T11:30:14.278Z,11
2023-01-13T11:31:14.367Z,13
2023-01-13T11:32:14.263Z,9
2023-01-13T11:33:14.289Z,9
2023-01-13T11:34:14.276Z,13
2023-01-13T11:35:14.352Z,9
2023-01-13T11:36:14.288Z,9
2023-01-13T11:37:14.307Z,11
2023-01-13T11:38:14.258Z,7
2023-01-13T11:39:14.268Z,7
2023-01-13T11:40:14.264Z,9
2023-01-13T11:41:14.335Z,8
2023-01-13T11:42:14.289Z,8
2023-01-13T11:43:14.270Z,11
2023-01-13T11:44:14.288Z,10
2023-01-13T11:45:14.265Z,10
2023-01-13T11:46:14.316Z,5
2023-01-13T11:47:14.275Z,14
2023-01-13T11:48:14.428Z,9
2023-01-13T11:49:14.260Z,8
2023-01-13T11:50:14.267Z,9
2023-01-13T11:51:14.281Z,11
2023-01-13T11:52:14.280Z,10
2023-01-13T11:53:14.299Z,8
2023-01-13T11:55:14.259Z,11
2023-01-13T11:56:14.298Z,7
2023-01-13T11:57:14.549Z,6
2023-01-13T11:58:14.268Z,13
2023-01-13T12:00:14.274Z,9
2023-01-13T12:01:14.348Z,10
2023-01-13T12:02:14.373Z,8
2023-01-13T12:03:14.339Z,11
2023-01-13T12:04:14.272Z,10
2023-01-13T12:05:14.287Z,10
2023-01-13T12:06:14.288Z,10
2023-01-13T12:07:14.296Z,12
2023-01-13T12:08:14.312Z,7
2023-01-13T12:09:14.287Z,11
2023-01-13T12:10:14.275Z,6
2023-01-13T12:11:14.299Z,10
2023-01-13T12:12:14.270Z,6
2023-01-13T12:13:14.279Z,8
2023-01-13T12:14:14.277Z,8
2023-01-13T12:15:14.267Z,10
2023-01-13T12:16:14.333Z,10
2023-01-13T12:17:14.269Z,9
2023-01-13T12:18:14.262Z,6
2023-01-13T12:19:14.271Z,7
2023-01-13T12:20:14.317Z,8
2023-01-13T12:21:14.282Z,13
2023-01-13T12:22:14.267Z,6
2023-01-13T12:23:14.266Z,10
2023-01-13T12:24:14.252Z,9
2023-01-13T12:25:14.347Z,7
2023-01-13T12:26:14.278Z,7
2023-01-13T12:27:14.277Z,7
2023-01-13T12:28:14.296Z,5
2023-01-13T12:29:14.270Z,4
2023-01-13T12:30:14.265Z,6
2023-01-13T12:31:14.328Z,5
2023-01-13T12:32:14.315Z,7
2023-01-13T12:33:14.264Z,5
2023-01-13T12:34:14.285Z,4
2023-01-13T12:35:14.270Z,8
2023-01-13T12:36:14.283Z,8
2023-01-13T12:37:14.259Z,7
2023-01-13T12:38:14.322Z,10
2023-01-13T12:39:14.279Z,12
2023-01-13T12:40:14.263Z,8
2023-01-13T12:41:14.302Z,8
2023-01-13T12:42:14.253Z,5
2023-01-13T12:43:14.291Z,6
2023-01-13T12:44:14.266Z,8
2023-01-13T12:45:14.299Z,8
2023-01-13T12:46:14.365Z,6
2023-01-13T12:47:14.279Z,7
2023-01-13T12:48:14.272Z,7
2023-01-13T12:49:14.277Z,6
2023-01-13T12:50:14.257Z,7
2023-01-13T12:51:14.291Z,5
2023-01-13T12:52:14.365Z,8
2023-01-13T12:53:14.286Z,7
2023-01-13T12:54:14.263Z,5
2023-01-13T12:55:14.259Z,9
2023-01-13T12:56:14.292Z,6
2023-01-13T12:57:14.298Z,6
2023-01-13T12:58:14.345Z,7
2023-01-13T12:59:14.317Z,7
2023-01-13T13:00:14.288Z,10
2023-01-13T13:01:14.438Z,11
2023-01-13T13:02:14.441Z,9
2023-01-13T13:03:14.267Z,7
2023-01-13T13:04:14.269Z,7
2023-01-13T13:05:14.263Z,5
2023-01-13T13:06:14.263Z,10
2023-01-13T13:07:14.279Z,7
2023-01-13T13:08:14.295Z,11
2023-01-13T13:09:14.331Z,8
2023-01-13T13:10:14.272Z,6
2023-01-13T13:11:14.274Z,8
2023-01-13T13:12:14.299Z,9
2023-01-13T13:13:14.317Z,8
2023-01-13T13:14:14.269Z,8
2023-01-13T13:15:14.288Z,8
2023-01-13T13:16:14.321Z,7
2023-01-13T13:17:14.301Z,7
2023-01-13T13:18:14.281Z,10
2023-01-13T13:19:14.303Z,7
2023-01-13T13:20:14.305Z,8
2023-01-13T13:21:14.326Z,7
2023-01-13T13:22:14.305Z,7
2023-01-13T13:23:14.278Z,9
2023-01-13T13:24:14.293Z,6
2023-01-13T13:25:14.276Z,8
2023-01-13T13:26:14.268Z,6
2023-01-13T13:27:14.304Z,7
2023-01-13T13:28:14.275Z,13
2023-01-13T13:29:14.269Z,9
2023-01-13T13:30:14.314Z,10
2023-01-13T13:31:14.347Z,10
2023-01-13T13:32:14.282Z,6
2023-01-13T13:33:14.324Z,7
2023-01-13T13:34:14.275Z,5
2023-01-13T13:35:14.290Z,8
2023-01-13T13:36:14.256Z,7
2023-01-13T13:37:14.304Z,8
2023-01-13T13:38:14.276Z,10
2023-01-13T13:39:14.282Z,9
2023-01-13T13:40:14.277Z,9
2023-01-13T13:41:14.290Z,9
2023-01-13T13:42:14.306Z,9
2023-01-13T13:43:14.282Z,11
2023-01-13T13:44:14.285Z,6
2023-01-13T13:45:14.298Z,7
2023-01-13T13:46:14.411Z,6
2023-01-13T13:47:14.305Z,13
2023-01-13T13:48:14.264Z,10
2023-01-13T13:49:14.277Z,10
2023-01-13T13:50:14.289Z,8
2023-01-13T13:51:14.260Z,10
2023-01-13T13:52:14.299Z,7
2023-01-13T13:53:14.278Z,12
2023-01-13T13:54:14.388Z,9
2023-01-13T13:55:14.288Z,9
2023-01-13T13:56:14.264Z,8
2023-01-13T13:57:14.290Z,8
2023-01-13T13:58:14.279Z,6
2023-01-13T13:59:14.298Z,9
2023-01-13T14:00:14.269Z,11
2023-01-13T14:01:14.367Z,11
2023-01-13T14:02:14.355Z,9
2023-01-13T14:03:14.280Z,9
2023-01-13T14:04:14.270Z,12
2023-01-13T14:05:14.301Z,8
2023-01-13T14:06:14.277Z,11
2023-01-13T14:07:14.293Z,9
2023-01-13T14:08:14.237Z,16
2023-01-13T14:09:14.242Z,7
2023-01-13T14:10:14.263Z,9
2023-01-13T14:11:14.240Z,6
2023-01-13T14:12:14.244Z,8
2023-01-13T14:13:14.246Z,8
2023-01-13T14:14:14.232Z,10
2023-01-13T14:16:14.270Z,8
2023-01-13T14:17:14.255Z,11
2023-01-13T14:18:14.213Z,8
2023-01-13T14:19:14.216Z,8
2023-01-13T14:20:14.228Z,10
2023-01-13T14:21:14.316Z,7
2023-01-13T14:22:14.309Z,9
2023-01-13T14:23:14.203Z,11
2023-01-13T14:24:14.226Z,9
2023-01-13T14:25:14.232Z,8
2023-01-13T14:26:14.217Z,11
2023-01-13T14:27:14.233Z,11
2023-01-13T14:28:14.211Z,12
2023-01-13T14:29:14.213Z,15
2023-01-13T14:30:24.217Z,15
2023-01-13T14:31:14.315Z,11
2023-01-13T14:32:14.289Z,12
2023-01-13T14:33:14.211Z,9
2023-01-13T14:34:31.830Z,6
2023-01-13T14:35:14.202Z,9
2023-01-13T14:36:14.278Z,10
2023-01-13T14:37:14.292Z,9
2023-01-13T14:38:14.221Z,8
2023-01-13T14:39:14.208Z,7
2023-01-13T14:40:14.200Z,7
2023-01-13T14:41:14.219Z,12
2023-01-13T14:42:14.240Z,11
2023-01-13T14:43:14.218Z,7
2023-01-13T14:44:14.218Z,7
2023-01-13T14:45:14.199Z,9
2023-01-13T14:46:14.216Z,11
2023-01-13T14:47:14.242Z,6
2023-01-13T14:48:14.196Z,7
2023-01-13T14:49:14.203Z,10
2023-01-13T14:50:14.194Z,6
2023-01-13T14:51:14.196Z,5
2023-01-13T14:52:14.206Z,7
2023-01-13T14:53:14.222Z,9
2023-01-13T14:54:14.198Z,6
2023-01-13T14:55:14.196Z,7
2023-01-13T14:56:14.195Z,5
2023-01-13T14:57:14.190Z,10
2023-01-13T14:58:14.258Z,7
2023-01-13T14:59:14.202Z,6
2023-01-13T15:00:14.247Z,8
2023-01-13T15:01:14.282Z,7
2023-01-13T15:02:14.273Z,5
2023-01-13T15:03:14.239Z,9
2023-01-13T15:04:14.183Z,11
2023-01-13T15:05:14.185Z,7
2023-01-13T15:06:14.204Z,10
2023-01-13T15:07:14.223Z,6